createdAt,value
2017-06-17T00:00:41.709Z,2.87
2017-06-17T00:03:09.306Z,2.65
2017-06-17T00:05:36.854Z,3.12
2017-06-17T00:08:04.406Z,3.08
2017-06-17T00:10:31.964Z,2.90
2017-06-17T00:12:59.507Z,2.97
2017-06-17T00:15:27.849Z,3.03
2017-06-17T00:17:55.401Z,3.20
2017-06-17T00:20:22.988Z,2.60
2017-06-17T00:22:50.566Z,2.60
2017-06-17T00:25:18.197Z,2.62
2017-06-17T00:27:45.793Z,3.33
2017-06-17T00:30:13.336Z,2.58
2017-06-17T00:32:40.904Z,2.85
2017-06-17T00:35:08.448Z,2.67
2017-06-17T00:37:36.014Z,2.80
2017-06-17T00:40:03.567Z,2.60
2017-06-17T00:42:31.103Z,2.50
2017-06-17T00:44:59.435Z,3.62
2017-06-17T00:47:26.981Z,2.55
2017-06-17T00:49:54.549Z,2.28
2017-06-17T00:52:22.089Z,3.40
2017-06-17T00:54:49.659Z,2.92
2017-06-17T00:57:17.193Z,3.58
2017-06-17T00:59:44.752Z,2.45
2017-06-17T01:02:12.293Z,2.62
2017-06-17T01:04:39.871Z,2.50
2017-06-17T01:07:07.410Z,3.08
2017-06-17T01:09:34.965Z,2.78
2017-06-17T01:12:02.546Z,2.47
2017-06-17T01:14:30.101Z,2.60
2017-06-17T01:16:57.685Z,2.03
2017-06-17T01:19:25.221Z,2.90
2017-06-17T01:21:52.791Z,3.05
2017-06-17T01:24:20.330Z,2.70
2017-06-17T01:26:48.644Z,2.50
2017-06-17T01:29:16.184Z,2.80
2017-06-17T01:31:43.746Z,2.78
2017-06-17T01:34:11.292Z,2.90
2017-06-17T01:36:39.649Z,3.17
2017-06-17T01:39:07.511Z,2.30
2017-06-17T01:41:35.099Z,2.70
2017-06-17T01:44:02.656Z,2.70
2017-06-17T01:46:30.198Z,2.60
2017-06-17T01:48:57.765Z,2.20
2017-06-17T01:51:25.310Z,2.15
2017-06-17T01:53:52.930Z,2.37
2017-06-17T01:56:20.479Z,2.45
2017-06-17T01:58:48.031Z,2.47
2017-06-17T02:01:15.578Z,2.50
2017-06-17T02:03:43.159Z,2.42
2017-06-17T02:06:11.570Z,2.50
2017-06-17T02:08:39.456Z,2.90
2017-06-17T02:11:07.786Z,2.33
2017-06-17T02:13:35.348Z,2.25
2017-06-17T02:16:02.917Z,2.03
2017-06-17T02:18:30.461Z,2.83
2017-06-17T02:21:03.809Z,2.75
2017-06-17T02:23:31.368Z,2.35
2017-06-17T02:25:58.961Z,2.40
2017-06-17T02:28:27.288Z,2.50
2017-06-17T02:30:54.860Z,2.70
2017-06-17T02:33:22.408Z,2.80
2017-06-17T02:35:49.988Z,2.10
2017-06-17T02:38:17.528Z,2.33
2017-06-17T02:40:45.102Z,2.20
2017-06-17T02:43:12.701Z,2.20
2017-06-17T02:45:40.266Z,2.65
2017-06-17T02:48:07.828Z,2.28
2017-06-17T02:50:35.373Z,2.42
2017-06-17T02:53:02.952Z,2.50
2017-06-17T02:55:30.519Z,2.90
2017-06-17T02:57:58.066Z,2.67
2017-06-17T03:00:25.605Z,2.55
2017-06-17T03:02:53.196Z,3.12
2017-06-17T03:05:21.246Z,1.87
2017-06-17T03:07:48.863Z,1.95
2017-06-17T03:10:16.433Z,2.35
2017-06-17T03:12:44.035Z,2.30
2017-06-17T03:15:11.615Z,1.98
2017-06-17T03:17:39.221Z,2.00
2017-06-17T03:20:06.791Z,1.83
2017-06-17T03:22:34.345Z,1.90
2017-06-17T03:25:01.909Z,2.80
2017-06-17T03:27:29.530Z,1.90
2017-06-17T03:29:57.850Z,2.30
2017-06-17T03:32:25.407Z,2.05
2017-06-17T03:34:52.968Z,1.73
2017-06-17T03:37:20.517Z,2.67
2017-06-17T03:39:48.067Z,2.50
2017-06-17T03:42:15.662Z,2.22
2017-06-17T03:44:43.198Z,2.30
2017-06-17T03:47:11.565Z,3.62
2017-06-17T03:49:39.086Z,2.50
2017-06-17T03:52:07.079Z,2.15
2017-06-17T03:54:34.638Z,2.55
2017-06-17T03:57:02.160Z,2.08
2017-06-17T03:59:29.721Z,2.60
2017-06-17T04:01:57.273Z,2.42
2017-06-17T04:04:25.594Z,1.95
2017-06-17T04:06:53.129Z,1.95
2017-06-17T04:09:21.493Z,2.40
2017-06-17T04:11:49.811Z,2.20
2017-06-17T04:14:17.358Z,2.30
2017-06-17T04:16:44.913Z,2.10
2017-06-17T04:19:13.221Z,3.17
2017-06-17T04:21:41.629Z,1.87
2017-06-17T04:24:09.169Z,1.80
2017-06-17T04:26:36.733Z,2.10
2017-06-17T04:29:04.293Z,2.08
2017-06-17T04:31:31.858Z,1.67
2017-06-17T04:33:59.395Z,1.40
2017-06-17T04:36:27.721Z,1.58
2017-06-17T04:38:55.308Z,1.70
2017-06-17T04:41:22.866Z,2.00
2017-06-17T04:43:50.422Z,1.80
2017-06-17T04:46:17.971Z,2.10
2017-06-17T04:48:45.564Z,1.62
2017-06-17T04:51:13.101Z,1.33
2017-06-17T04:53:40.681Z,1.40
2017-06-17T04:56:08.222Z,1.40
2017-06-17T04:58:35.844Z,1.42
2017-06-17T05:01:03.394Z,1.10
2017-06-17T05:03:30.944Z,1.52
2017-06-17T05:05:58.524Z,1.67
2017-06-17T05:08:26.058Z,1.60
2017-06-17T05:10:53.612Z,1.70
2017-06-17T05:13:21.157Z,1.50
2017-06-17T05:15:49.501Z,1.48
2017-06-17T05:18:17.033Z,1.30
2017-06-17T05:20:44.614Z,1.25
2017-06-17T05:23:12.162Z,1.35
2017-06-17T05:25:39.729Z,1.40
2017-06-17T05:28:13.038Z,1.37
2017-06-17T05:30:40.581Z,1.60
2017-06-17T05:33:08.161Z,1.20
2017-06-17T05:35:35.713Z,1.42
2017-06-17T05:38:03.299Z,1.13
2017-06-17T05:40:30.840Z,1.40
2017-06-17T05:42:58.534Z,1.00
2017-06-17T05:45:26.304Z,1.60
2017-06-17T05:47:54.308Z,1.17
2017-06-17T05:50:22.167Z,1.27
2017-06-17T05:52:49.976Z,1.30
2017-06-17T05:55:17.561Z,1.10
2017-06-17T05:57:45.108Z,1.30
2017-06-17T06:00:12.716Z,1.30
2017-06-17T06:02:40.437Z,1.50
2017-06-17T06:05:08.031Z,1.47
2017-06-17T06:07:35.589Z,1.40
2017-06-17T06:10:03.191Z,1.70
2017-06-17T06:12:30.807Z,1.33
2017-06-17T06:14:58.394Z,1.30
2017-06-17T06:17:25.945Z,1.50
2017-06-17T06:19:53.513Z,1.93
2017-06-17T06:22:21.059Z,1.90
2017-06-17T06:24:49.370Z,1.80
2017-06-17T06:27:16.927Z,1.47
2017-06-17T06:29:44.464Z,1.50
2017-06-17T06:32:12.897Z,1.50
2017-06-17T06:34:40.447Z,1.80
2017-06-17T06:37:08.481Z,1.57
2017-06-17T06:39:36.029Z,1.83
2017-06-17T06:42:03.590Z,1.40
2017-06-17T06:44:33.240Z,1.77
2017-06-17T06:47:01.595Z,1.70
2017-06-17T06:49:29.175Z,1.70
2017-06-17T06:51:57.489Z,1.90
2017-06-17T06:54:25.073Z,1.50
2017-06-17T06:56:52.624Z,2.00
2017-06-17T06:59:21.038Z,1.97
2017-06-17T07:01:48.591Z,1.43
2017-06-17T07:04:16.146Z,1.90
2017-06-17T07:06:43.707Z,1.80
2017-06-17T07:09:11.269Z,1.50
2017-06-17T07:11:38.833Z,1.83
2017-06-17T07:14:06.382Z,1.60
2017-06-17T07:16:34.706Z,2.23
2017-06-17T07:19:02.270Z,1.60
2017-06-17T07:21:30.840Z,1.70
2017-06-17T07:23:58.652Z,1.63
2017-06-17T07:26:26.985Z,1.80
2017-06-17T07:28:54.538Z,1.87
2017-06-17T07:31:22.223Z,1.83
2017-06-17T07:33:49.764Z,1.90
2017-06-17T07:36:17.321Z,1.83
2017-06-17T07:38:45.647Z,1.60
2017-06-17T07:41:13.193Z,1.60
2017-06-17T07:43:40.749Z,1.47
2017-06-17T07:46:08.332Z,1.80
2017-06-17T07:48:35.902Z,1.80
2017-06-17T07:51:03.947Z,1.60
2017-06-17T07:53:32.260Z,1.60
2017-06-17T07:55:59.838Z,2.10
2017-06-17T07:58:27.385Z,1.70
2017-06-17T08:00:54.940Z,1.67
2017-06-17T08:03:22.507Z,2.07
2017-06-17T08:05:50.041Z,1.90
2017-06-17T08:08:18.369Z,1.87
2017-06-17T08:10:45.955Z,1.70
2017-06-17T08:13:13.490Z,1.93
2017-06-17T08:15:41.039Z,2.43
2017-06-17T08:18:08.606Z,1.67
2017-06-17T08:20:36.141Z,1.70
2017-06-17T08:23:03.717Z,2.53
2017-06-17T08:25:32.466Z,1.70
2017-06-17T08:28:00.056Z,2.00
2017-06-17T08:30:27.597Z,1.60
2017-06-17T08:32:55.179Z,1.50
2017-06-17T08:35:22.717Z,1.77
2017-06-17T08:37:50.323Z,1.90
2017-06-17T08:40:18.644Z,1.53
2017-06-17T08:42:46.205Z,1.97
2017-06-17T08:45:13.763Z,2.13
2017-06-17T08:47:41.299Z,1.87
2017-06-17T08:50:09.617Z,1.90
2017-06-17T08:52:37.161Z,2.33
2017-06-17T08:55:04.743Z,1.70
2017-06-17T08:57:32.282Z,2.23
2017-06-17T08:59:59.857Z,1.93
2017-06-17T09:02:27.417Z,2.10
2017-06-17T09:04:54.944Z,1.83
2017-06-17T09:07:22.516Z,1.60
2017-06-17T09:09:50.054Z,1.50
2017-06-17T09:12:17.659Z,1.77
2017-06-17T09:14:45.225Z,1.70
2017-06-17T09:17:12.761Z,2.00
2017-06-17T09:19:40.413Z,1.40
2017-06-17T09:22:07.984Z,1.60
2017-06-17T09:24:35.518Z,1.53
2017-06-17T09:27:03.100Z,1.50
2017-06-17T09:29:30.665Z,1.53
2017-06-17T09:31:58.249Z,1.40
2017-06-17T09:34:25.798Z,1.43
2017-06-17T09:36:53.330Z,1.60
2017-06-17T09:39:21.681Z,1.63
2017-06-17T09:41:51.065Z,1.70
2017-06-17T09:44:18.600Z,1.40
2017-06-17T09:46:46.148Z,1.97
2017-06-17T09:49:14.466Z,1.50
2017-06-17T09:51:42.035Z,1.80
2017-06-17T09:54:09.601Z,2.07
2017-06-17T09:56:37.133Z,1.57
2017-06-17T09:59:04.747Z,1.30
2017-06-17T10:01:32.287Z,1.50
2017-06-17T10:03:59.901Z,1.50
2017-06-17T10:06:28.288Z,1.90
2017-06-17T10:08:55.841Z,1.50
2017-06-17T10:11:23.406Z,1.30
2017-06-17T10:13:50.989Z,1.40
2017-06-17T10:16:19.324Z,1.17
2017-06-17T10:18:46.871Z,1.43
2017-06-17T10:21:14.414Z,1.40
2017-06-17T10:23:42.007Z,1.80
2017-06-17T10:26:09.560Z,1.87
2017-06-17T10:28:37.312Z,1.50
2017-06-17T10:31:05.630Z,1.40
2017-06-17T10:33:33.217Z,1.30
2017-06-17T10:36:00.769Z,1.80
2017-06-17T10:38:28.319Z,1.33
2017-06-17T10:40:55.871Z,1.50
2017-06-17T10:43:23.445Z,1.37
2017-06-17T10:45:51.041Z,1.30
2017-06-17T10:48:18.612Z,1.43
2017-06-17T10:50:46.494Z,1.73
2017-06-17T10:53:14.054Z,1.70
2017-06-17T10:55:41.646Z,1.30
2017-06-17T10:58:09.406Z,1.63
2017-06-17T11:00:36.976Z,1.23
2017-06-17T11:03:05.295Z,1.50
2017-06-17T11:05:32.891Z,1.60
2017-06-17T11:08:00.435Z,1.37
2017-06-17T11:10:27.981Z,1.20
2017-06-17T11:12:55.561Z,1.40
2017-06-17T11:15:23.111Z,2.53
2017-06-17T11:17:50.694Z,1.23
2017-06-17T11:20:18.236Z,1.30
2017-06-17T11:22:45.786Z,1.33
2017-06-17T11:25:13.346Z,1.27
2017-06-17T11:27:40.954Z,1.20
2017-06-17T11:30:08.541Z,1.40
2017-06-17T11:32:36.064Z,1.40
2017-06-17T11:35:03.602Z,1.40
2017-06-17T11:37:31.170Z,1.40
2017-06-17T11:39:58.721Z,1.23
2017-06-17T11:42:26.301Z,1.60
2017-06-17T11:44:54.605Z,1.20
2017-06-17T11:47:22.149Z,1.40
2017-06-17T11:49:49.737Z,1.47
2017-06-17T11:52:18.222Z,1.30
2017-06-17T11:54:45.772Z,1.37
2017-06-17T11:57:13.343Z,1.43
2017-06-17T11:59:40.902Z,1.30
2017-06-17T12:02:08.492Z,1.67
2017-06-17T12:04:36.043Z,1.20
2017-06-17T12:07:03.596Z,1.43
2017-06-17T12:09:31.962Z,1.20
2017-06-17T12:11:59.504Z,1.40
2017-06-17T12:14:27.078Z,1.30
2017-06-17T12:16:54.660Z,1.20
2017-06-17T12:19:22.190Z,1.20
2017-06-17T12:21:49.754Z,1.10
2017-06-17T12:24:17.344Z,1.20
2017-06-17T12:26:44.919Z,1.20
2017-06-17T12:29:12.566Z,1.40
2017-06-17T12:31:40.116Z,1.77
2017-06-17T12:34:07.649Z,1.30
2017-06-17T12:36:35.257Z,1.50
2017-06-17T12:39:02.795Z,1.40
2017-06-17T12:41:30.329Z,1.40
2017-06-17T12:43:58.774Z,1.50
2017-06-17T12:46:26.311Z,1.40
2017-06-17T12:48:53.889Z,1.63
2017-06-17T12:51:21.781Z,1.20
2017-06-17T12:53:49.377Z,1.27
2017-06-17T12:56:18.402Z,1.00
2017-06-17T12:58:46.575Z,1.33
2017-06-17T13:01:14.109Z,1.30
2017-06-17T13:03:41.705Z,1.20
2017-06-17T13:06:09.251Z,1.40
2017-06-17T13:08:36.814Z,1.53
2017-06-17T13:11:05.141Z,1.37
2017-06-17T13:13:32.696Z,1.50
2017-06-17T13:16:00.289Z,1.40
2017-06-17T13:18:27.842Z,1.70
2017-06-17T13:20:55.414Z,1.13
2017-06-17T13:23:22.963Z,1.60
2017-06-17T13:25:50.529Z,1.20
2017-06-17T13:28:18.063Z,1.70
2017-06-17T13:30:45.653Z,1.13
2017-06-17T13:33:13.206Z,1.30
2017-06-17T13:35:40.754Z,1.50
2017-06-17T13:38:08.306Z,1.43
2017-06-17T13:40:35.872Z,1.97
2017-06-17T13:43:04.248Z,1.40
2017-06-17T13:45:32.566Z,1.63
2017-06-17T13:48:00.138Z,1.40
2017-06-17T13:50:27.706Z,1.50
2017-06-17T13:52:55.293Z,1.63
2017-06-17T13:55:22.826Z,1.83
2017-06-17T13:57:50.388Z,1.50
2017-06-17T14:00:17.933Z,1.30
2017-06-17T14:02:46.262Z,1.50
2017-06-17T14:05:13.832Z,1.30
2017-06-17T14:07:41.834Z,1.20
2017-06-17T14:10:12.604Z,1.60
2017-06-17T14:12:40.148Z,1.60
2017-06-17T14:15:08.576Z,1.60
2017-06-17T14:17:36.115Z,1.60
2017-06-17T14:20:03.680Z,1.23
2017-06-17T14:22:31.245Z,1.60
2017-06-17T14:24:58.785Z,1.40
2017-06-17T14:27:27.132Z,1.40
2017-06-17T14:29:54.694Z,1.50
2017-06-17T14:32:22.265Z,1.53
2017-06-17T14:34:49.833Z,1.43
2017-06-17T14:37:17.396Z,1.30
2017-06-17T14:39:45.008Z,1.40
2017-06-17T14:42:12.607Z,1.20
2017-06-17T14:44:40.156Z,1.70
2017-06-17T14:47:07.718Z,1.70
2017-06-17T14:49:35.307Z,1.40
2017-06-17T14:52:02.836Z,1.50
2017-06-17T14:54:31.168Z,1.47
2017-06-17T14:56:59.660Z,1.30
2017-06-17T14:59:27.200Z,1.30
2017-06-17T15:01:54.764Z,1.43
2017-06-17T15:04:22.334Z,1.30
2017-06-17T15:06:49.912Z,1.50
2017-06-17T15:09:17.441Z,1.40
2017-06-17T15:11:44.981Z,1.30
2017-06-17T15:14:13.333Z,1.47
2017-06-17T15:16:40.892Z,1.70
2017-06-17T15:19:08.461Z,1.23
2017-06-17T15:21:36.798Z,1.40
2017-06-17T15:24:04.355Z,1.90
2017-06-17T15:26:33.296Z,1.90
2017-06-17T15:29:00.845Z,1.30
2017-06-17T15:31:28.398Z,1.50
2017-06-17T15:33:55.966Z,1.60
2017-06-17T15:36:23.508Z,1.17
2017-06-17T15:38:51.801Z,1.70
2017-06-17T15:41:19.358Z,1.70
2017-06-17T15:43:46.899Z,1.30
2017-06-17T15:46:14.470Z,1.50
2017-06-17T15:48:42.011Z,1.20
2017-06-17T15:51:09.649Z,1.30
2017-06-17T15:53:37.188Z,1.63
2017-06-17T15:56:04.793Z,1.37
2017-06-17T15:58:32.345Z,1.20
2017-06-17T16:00:59.938Z,1.80
2017-06-17T16:03:27.576Z,1.37
2017-06-17T16:05:55.163Z,1.30
2017-06-17T16:08:22.701Z,1.40
2017-06-17T16:10:50.246Z,1.87
2017-06-17T16:13:18.525Z,1.33
2017-06-17T16:15:46.081Z,1.20
2017-06-17T16:18:13.682Z,1.80
2017-06-17T16:20:41.246Z,1.43
2017-06-17T16:23:08.826Z,1.67
2017-06-17T16:25:36.392Z,1.50
2017-06-17T16:28:03.956Z,1.20
2017-06-17T16:30:31.495Z,1.40
2017-06-17T16:32:59.026Z,1.47
2017-06-17T16:35:26.604Z,1.63
2017-06-17T16:37:54.205Z,2.40
2017-06-17T16:40:21.765Z,1.40
2017-06-17T16:42:49.365Z,1.23
2017-06-17T16:45:17.014Z,1.40
2017-06-17T16:47:44.541Z,1.13
2017-06-17T16:50:12.117Z,1.10
2017-06-17T16:52:39.687Z,1.50
2017-06-17T16:55:07.237Z,1.30
2017-06-17T16:57:34.823Z,1.60
2017-06-17T17:00:02.370Z,1.60
2017-06-17T17:02:29.925Z,1.40
2017-06-17T17:04:57.471Z,1.30
2017-06-17T17:07:25.081Z,1.30
2017-06-17T17:09:53.429Z,1.60
2017-06-17T17:12:21.831Z,1.00
2017-06-17T17:14:49.361Z,1.13
2017-06-17T17:17:17.682Z,1.10
2017-06-17T17:19:46.061Z,1.27
2017-06-17T17:22:13.673Z,1.40
2017-06-17T17:24:41.262Z,1.00
2017-06-17T17:27:08.838Z,1.00
2017-06-17T17:29:36.403Z,1.50
2017-06-17T17:32:03.963Z,1.00
2017-06-17T17:34:31.584Z,1.37
2017-06-17T17:36:59.151Z,1.17
2017-06-17T17:39:26.701Z,1.10
2017-06-17T17:41:54.270Z,1.40
2017-06-17T17:44:21.816Z,1.50
2017-06-17T17:46:49.385Z,1.13
2017-06-17T17:49:16.925Z,1.10
2017-06-17T17:51:45.256Z,1.00
2017-06-17T17:54:12.794Z,1.23
2017-06-17T17:56:40.404Z,1.10
2017-06-17T17:59:07.940Z,1.23
2017-06-17T18:01:35.519Z,1.13
2017-06-17T18:04:03.081Z,1.23
2017-06-17T18:06:30.661Z,1.10
2017-06-17T18:08:58.247Z,1.33
2017-06-17T18:11:25.773Z,1.27
2017-06-17T18:13:53.329Z,1.20
2017-06-17T18:16:20.877Z,1.10
2017-06-17T18:18:48.455Z,1.30
2017-06-17T18:21:16.022Z,1.20
2017-06-17T18:23:43.564Z,1.10
2017-06-17T18:26:11.125Z,1.33
2017-06-17T18:28:38.717Z,1.30
2017-06-17T18:31:06.257Z,1.03
2017-06-17T18:33:33.802Z,1.20
2017-06-17T18:36:01.388Z,1.00
2017-06-17T18:38:28.954Z,1.00
2017-06-17T18:40:56.533Z,0.93
2017-06-17T18:43:24.069Z,1.67
2017-06-17T18:45:52.425Z,1.20
2017-06-17T18:48:20.794Z,1.20
2017-06-17T18:50:48.366Z,1.30
2017-06-17T18:53:16.250Z,1.20
2017-06-17T18:55:43.836Z,1.40
2017-06-17T18:58:12.162Z,1.30
2017-06-17T19:00:39.713Z,1.27
2017-06-17T19:03:07.273Z,1.60
2017-06-17T19:05:34.821Z,1.30
2017-06-17T19:08:02.386Z,1.20
2017-06-17T19:10:29.933Z,1.30
2017-06-17T19:12:58.289Z,1.15
2017-06-17T19:15:25.874Z,1.30
2017-06-17T19:17:54.188Z,1.05
2017-06-17T19:20:21.773Z,1.20
2017-06-17T19:22:49.303Z,1.20
2017-06-17T19:25:16.898Z,1.40
2017-06-17T19:27:44.447Z,1.60
2017-06-17T19:30:13.026Z,1.60
2017-06-17T19:32:40.592Z,1.75
2017-06-17T19:35:08.207Z,1.77
2017-06-17T19:37:35.764Z,1.52
2017-06-17T19:40:03.302Z,1.60
2017-06-17T19:42:30.887Z,1.73
2017-06-17T19:44:58.430Z,1.60
2017-06-17T19:47:25.991Z,1.90
2017-06-17T19:49:53.531Z,2.08
2017-06-17T19:52:21.097Z,2.08
2017-06-17T19:54:49.404Z,2.85
2017-06-17T19:57:16.989Z,2.53
2017-06-17T19:59:44.547Z,2.67
2017-06-17T20:02:12.085Z,2.22
2017-06-17T20:04:40.428Z,3.00
2017-06-17T20:07:07.969Z,3.00
2017-06-17T20:09:35.533Z,2.50
2017-06-17T20:12:03.077Z,2.83
2017-06-17T20:14:30.630Z,3.00
2017-06-17T20:16:58.206Z,3.33
2017-06-17T20:19:25.772Z,3.47
2017-06-17T20:21:58.938Z,3.05
2017-06-17T20:24:31.084Z,3.15
2017-06-17T20:26:58.629Z,3.70
2017-06-17T20:29:26.229Z,3.20
2017-06-17T20:31:53.813Z,2.87
2017-06-17T20:34:21.406Z,2.92
2017-06-17T20:36:48.984Z,3.05
2017-06-17T20:39:16.856Z,3.05
2017-06-17T20:41:44.554Z,3.70
2017-06-17T20:44:12.279Z,3.08
2017-06-17T20:46:39.820Z,3.80
2017-06-17T20:49:07.429Z,2.90
2017-06-17T20:51:35.001Z,3.50
2017-06-17T20:54:02.870Z,3.28
2017-06-17T20:56:30.457Z,2.85
2017-06-17T20:58:58.004Z,3.60
2017-06-17T21:01:25.572Z,2.80
2017-06-17T21:03:53.133Z,3.20
2017-06-17T21:06:20.674Z,3.00
2017-06-17T21:08:48.264Z,3.37
2017-06-17T21:11:15.797Z,3.37
2017-06-17T21:13:43.386Z,3.05
2017-06-17T21:16:10.924Z,3.05
2017-06-17T21:18:38.510Z,3.05
2017-06-17T21:21:06.044Z,3.92
2017-06-17T21:23:33.635Z,3.40
2017-06-17T21:26:01.178Z,3.72
2017-06-17T21:28:28.793Z,3.37
2017-06-17T21:30:56.397Z,3.42
2017-06-17T21:33:23.943Z,3.62
2017-06-17T21:35:51.512Z,4.07
2017-06-17T21:38:19.845Z,3.22
2017-06-17T21:40:47.514Z,4.45
2017-06-17T21:43:15.058Z,4.20
2017-06-17T21:45:42.645Z,3.50
2017-06-17T21:48:10.194Z,4.50
2017-06-17T21:50:37.775Z,3.65
2017-06-17T21:53:05.309Z,4.20
2017-06-17T21:55:32.844Z,4.05
2017-06-17T21:58:00.389Z,4.00
2017-06-17T22:00:27.947Z,4.10
2017-06-17T22:02:55.529Z,3.90
2017-06-17T22:05:23.060Z,3.97
2017-06-17T22:07:50.628Z,3.55
2017-06-17T22:10:18.178Z,3.87
2017-06-17T22:12:45.738Z,4.30
2017-06-17T22:15:13.281Z,4.30
2017-06-17T22:17:40.842Z,4.10
2017-06-17T22:20:09.129Z,3.85
2017-06-17T22:22:37.417Z,4.12
2017-06-17T22:25:04.967Z,4.35
2017-06-17T22:27:33.280Z,3.85
2017-06-17T22:30:00.852Z,4.47
2017-06-17T22:32:28.380Z,4.35
2017-06-17T22:34:56.701Z,5.10
2017-06-17T22:37:24.268Z,4.53
2017-06-17T22:39:51.844Z,4.25
2017-06-17T22:42:19.381Z,4.32
2017-06-17T22:44:46.976Z,4.40
2017-06-17T22:47:14.493Z,4.40
2017-06-17T22:49:42.792Z,4.65
2017-06-17T22:52:10.357Z,4.50
2017-06-17T22:54:37.911Z,3.90
2017-06-17T22:57:06.240Z,4.57
2017-06-17T22:59:33.817Z,4.10
2017-06-17T23:02:01.455Z,4.47
2017-06-17T23:04:28.993Z,4.37
2017-06-17T23:06:56.558Z,4.55
2017-06-17T23:09:24.114Z,4.30
2017-06-17T23:11:52.450Z,5.70
2017-06-17T23:14:20.033Z,5.90
2017-06-17T23:16:47.594Z,6.60
2017-06-17T23:19:15.153Z,5.72
2017-06-17T23:21:42.707Z,6.45
2017-06-17T23:24:10.277Z,6.10
2017-06-17T23:26:37.801Z,5.85
2017-06-17T23:29:05.390Z,5.68
2017-06-17T23:31:32.966Z,6.07
2017-06-17T23:34:00.545Z,5.20
2017-06-17T23:36:28.086Z,5.78
2017-06-17T23:38:55.626Z,5.50
2017-06-17T23:41:23.202Z,5.40
2017-06-17T23:43:50.771Z,5.07
2017-06-17T23:46:18.342Z,5.25
2017-06-17T23:48:45.878Z,5.97
2017-06-17T23:51:13.441Z,5.15
2017-06-17T23:53:41.729Z,5.40
2017-06-17T23:56:09.287Z,5.82
2017-06-17T23:58:36.855Z,5.15
